createdAt,value
2024-05-09T00:00:40.863Z,10.9
2024-05-09T00:01:47.144Z,10.9
2024-05-09T00:02:53.207Z,10.9
2024-05-09T00:04:00.282Z,10.9
2024-05-09T00:05:07.487Z,10.9
2024-05-09T00:06:14.043Z,10.9
2024-05-09T00:07:21.016Z,10.9
2024-05-09T00:08:28.272Z,10.9
2024-05-09T00:09:35.262Z,10.9
2024-05-09T00:10:42.382Z,10.9
2024-05-09T00:11:49.564Z,10.9
2024-05-09T00:12:56.112Z,10.9
2024-05-09T00:14:03.167Z,10.9
2024-05-09T00:15:10.251Z,10.9
2024-05-09T00:16:17.372Z,10.9
2024-05-09T00:17:24.653Z,10.9
2024-05-09T00:18:31.416Z,10.9
2024-05-09T00:19:38.174Z,10.8
2024-05-09T00:20:45.292Z,10.9
2024-05-09T00:21:52.417Z,10.8
2024-05-09T00:22:59.533Z,10.8
2024-05-09T00:24:06.071Z,10.9
2024-05-09T00:25:13.162Z,10.8
2024-05-09T00:26:20.450Z,10.9
2024-05-09T00:27:27.364Z,10.8
2024-05-09T00:28:34.508Z,10.8
2024-05-09T00:29:41.145Z,10.8
2024-05-09T00:30:48.176Z,10.8
2024-05-09T00:31:55.328Z,10.9
2024-05-09T00:33:02.615Z,10.9
2024-05-09T00:34:09.887Z,10.8
2024-05-09T00:35:16.171Z,10.8
2024-05-09T00:36:23.203Z,10.8
2024-05-09T00:37:30.308Z,10.9
2024-05-09T00:38:37.475Z,10.9
2024-05-09T00:39:44.471Z,10.9
2024-05-09T00:40:51.084Z,10.9
2024-05-09T00:41:58.179Z,10.9
2024-05-09T00:43:05.304Z,10.9
2024-05-09T00:44:12.464Z,10.8
2024-05-09T00:45:18.988Z,10.9
2024-05-09T00:47:33.494Z,10.9
2024-05-09T00:48:40.539Z,10.9
2024-05-09T00:49:47.486Z,10.9
2024-05-09T00:50:54.034Z,10.9
2024-05-09T00:52:01.134Z,10.9
2024-05-09T00:53:08.351Z,10.9
2024-05-09T00:54:15.357Z,10.9
2024-05-09T00:55:22.435Z,10.9
2024-05-09T00:56:29.036Z,10.9
2024-05-09T00:57:36.095Z,10.9
2024-05-09T00:58:43.261Z,10.9
2024-05-09T00:59:50.341Z,10.9
2024-05-09T01:00:57.412Z,10.9
2024-05-09T01:02:04.062Z,10.9
2024-05-09T01:04:18.284Z,10.9
2024-05-09T01:05:25.909Z,10.9
2024-05-09T01:06:32.511Z,10.9
2024-05-09T01:07:39.065Z,10.9
2024-05-09T01:08:46.219Z,10.9
2024-05-09T01:09:53.236Z,10.9
2024-05-09T01:11:00.528Z,10.9
2024-05-09T01:12:07.594Z,10.9
2024-05-09T01:13:14.186Z,10.9
2024-05-09T01:14:21.208Z,10.9
2024-05-09T01:15:28.206Z,10.9
2024-05-09T01:16:35.353Z,10.9
2024-05-09T01:17:42.682Z,10.9
2024-05-09T01:18:49.211Z,10.9
2024-05-09T01:19:56.155Z,10.9
2024-05-09T01:21:03.278Z,10.9
2024-05-09T01:22:10.420Z,10.9
2024-05-09T01:23:17.437Z,10.8
2024-05-09T01:24:24.033Z,10.8
2024-05-09T01:25:31.170Z,10.8
2024-05-09T01:26:38.268Z,10.8
2024-05-09T01:27:45.349Z,10.8
2024-05-09T01:28:52.541Z,10.8
2024-05-09T01:29:59.007Z,10.8
2024-05-09T01:31:06.162Z,10.8
2024-05-09T01:32:13.536Z,10.8
2024-05-09T01:33:20.635Z,10.8
2024-05-09T01:34:27.470Z,10.8
2024-05-09T01:35:34.201Z,10.9
2024-05-09T01:36:41.231Z,10.8
2024-05-09T01:37:48.294Z,10.8
2024-05-09T01:38:55.421Z,10.8
2024-05-09T01:40:02.490Z,10.8
2024-05-09T01:41:09.097Z,10.9
2024-05-09T01:42:16.212Z,10.8
2024-05-09T01:43:23.287Z,10.8
2024-05-09T01:44:30.459Z,10.8
2024-05-09T01:45:37.443Z,10.8
2024-05-09T01:46:44.210Z,10.8
2024-05-09T01:47:51.407Z,10.8
2024-05-09T01:48:58.490Z,10.8
2024-05-09T01:51:12.160Z,10.8
2024-05-09T01:52:19.072Z,10.8
2024-05-09T01:53:26.226Z,10.8
2024-05-09T01:54:33.331Z,10.8
2024-05-09T01:55:40.395Z,10.8
2024-05-09T01:56:47.028Z,10.8
2024-05-09T01:57:54.111Z,10.8
2024-05-09T01:59:01.283Z,10.8
2024-05-09T02:00:10.256Z,10.8
2024-05-09T02:01:15.474Z,10.8
2024-05-09T02:02:22.053Z,10.8
2024-05-09T02:03:29.264Z,10.8
2024-05-09T02:04:36.264Z,10.8
2024-05-09T02:05:43.533Z,10.8
2024-05-09T02:06:50.409Z,10.8
2024-05-09T02:07:57.003Z,10.8
2024-05-09T02:09:04.642Z,10.8
2024-05-09T02:10:16.722Z,10.8
2024-05-09T02:11:18.371Z,10.8
2024-05-09T02:12:25.552Z,10.8
2024-05-09T02:13:32.052Z,10.8
2024-05-09T02:14:39.124Z,10.8
2024-05-09T02:15:46.211Z,10.8
2024-05-09T02:16:54.134Z,10.8
2024-05-09T02:18:00.765Z,10.8
2024-05-09T02:19:07.116Z,10.8
2024-05-09T02:20:22.544Z,10.8
2024-05-09T02:21:21.279Z,10.8
2024-05-09T02:22:28.298Z,10.8
2024-05-09T02:23:35.474Z,10.8
2024-05-09T02:24:42.019Z,10.8
2024-05-09T02:25:49.167Z,10.8
2024-05-09T02:26:56.276Z,10.8
2024-05-09T02:28:03.354Z,10.8
2024-05-09T02:29:10.561Z,10.8
2024-05-09T02:30:25.838Z,10.8
2024-05-09T02:32:31.439Z,10.8
2024-05-09T02:33:38.619Z,10.8
2024-05-09T02:34:45.521Z,10.8
2024-05-09T02:35:52.039Z,10.8
2024-05-09T02:36:59.131Z,10.8
2024-05-09T02:38:06.384Z,10.8
2024-05-09T02:39:13.344Z,10.8
2024-05-09T02:40:28.335Z,10.8
2024-05-09T02:41:27.112Z,10.8
2024-05-09T02:42:34.151Z,10.8
2024-05-09T02:43:41.314Z,10.8
2024-05-09T02:44:48.340Z,10.8
2024-05-09T02:45:55.426Z,10.8
2024-05-09T02:47:02.063Z,10.8
2024-05-09T02:48:09.290Z,10.8
2024-05-09T02:49:16.307Z,10.8
2024-05-09T02:50:30.568Z,10.8
2024-05-09T02:51:30.513Z,10.8
2024-05-09T02:52:37.037Z,10.8
2024-05-09T02:54:51.336Z,10.8
2024-05-09T02:55:58.365Z,10.8
2024-05-09T02:57:05.477Z,10.8
2024-05-09T02:58:12.125Z,10.8
2024-05-09T02:59:19.336Z,10.8
2024-05-09T03:00:34.724Z,10.8
2024-05-09T03:01:33.451Z,10.8
2024-05-09T03:02:40.597Z,10.8
2024-05-09T03:03:47.314Z,10.8
2024-05-09T03:04:54.220Z,10.8
2024-05-09T03:06:01.347Z,10.8
2024-05-09T03:07:11.854Z,10.7
2024-05-09T03:08:15.551Z,10.8
2024-05-09T03:09:22.086Z,10.8
2024-05-09T03:10:35.315Z,10.7
2024-05-09T03:11:36.394Z,10.7
2024-05-09T03:12:44.070Z,10.7
2024-05-09T03:13:50.595Z,10.7
2024-05-09T03:14:57.059Z,10.7
2024-05-09T03:16:04.231Z,10.7
2024-05-09T03:17:11.360Z,10.7
2024-05-09T03:18:18.516Z,10.7
2024-05-09T03:19:25.083Z,10.7
2024-05-09T03:20:34.959Z,10.7
2024-05-09T03:21:39.191Z,10.7
2024-05-09T03:22:46.359Z,10.7
2024-05-09T03:23:53.527Z,10.7
2024-05-09T03:24:59.991Z,10.7
2024-05-09T03:26:07.122Z,10.7
2024-05-09T03:27:14.260Z,10.7
2024-05-09T03:28:21.342Z,10.7
2024-05-09T03:29:28.526Z,10.7
2024-05-09T03:30:40.357Z,10.7
2024-05-09T03:31:42.147Z,10.8
2024-05-09T03:32:49.480Z,10.7
2024-05-09T03:33:56.450Z,10.8
2024-05-09T03:35:03.486Z,10.7
2024-05-09T03:36:11.281Z,10.7
2024-05-09T03:37:17.161Z,10.7
2024-05-09T03:38:24.277Z,10.7
2024-05-09T03:39:31.353Z,10.7
2024-05-09T03:40:38.483Z,10.7
2024-05-09T03:41:45.489Z,10.7
2024-05-09T03:42:52.142Z,10.7
2024-05-09T03:43:59.265Z,10.7
2024-05-09T03:45:06.352Z,10.7
2024-05-09T03:46:13.492Z,10.7
2024-05-09T03:47:20.279Z,10.7
2024-05-09T03:48:27.270Z,10.7
2024-05-09T03:49:34.371Z,10.7
2024-05-09T03:50:41.581Z,10.7
2024-05-09T03:51:48.531Z,10.7
2024-05-09T03:52:55.021Z,10.7
2024-05-09T03:54:02.134Z,10.7
2024-05-09T03:55:09.250Z,10.7
2024-05-09T03:56:16.381Z,10.7
2024-05-09T03:58:30.110Z,10.7
2024-05-09T04:00:44.409Z,10.7
2024-05-09T04:01:51.519Z,10.7
2024-05-09T04:02:58.644Z,10.7
2024-05-09T04:04:05.125Z,10.7
2024-05-09T04:05:12.417Z,10.7
2024-05-09T04:06:19.221Z,10.7
2024-05-09T04:07:26.368Z,10.7
2024-05-09T04:08:33.567Z,10.7
2024-05-09T04:09:40.090Z,10.7
2024-05-09T04:10:47.138Z,10.7
2024-05-09T04:11:54.993Z,10.7
2024-05-09T04:13:01.488Z,10.7
2024-05-09T04:14:08.721Z,10.7
2024-05-09T04:15:15.079Z,10.7
2024-05-09T04:16:22.733Z,10.7
2024-05-09T04:17:29.555Z,10.7
2024-05-09T04:18:36.448Z,10.7
2024-05-09T04:19:43.481Z,10.7
2024-05-09T04:20:50.088Z,10.7
2024-05-09T04:21:57.173Z,10.7
2024-05-09T04:23:04.391Z,10.7
2024-05-09T04:24:11.372Z,10.7
2024-05-09T04:25:18.494Z,10.7
2024-05-09T04:26:25.204Z,10.7
2024-05-09T04:27:32.231Z,10.7
2024-05-09T04:28:39.315Z,10.7
2024-05-09T04:29:46.371Z,10.7
2024-05-09T04:30:53.534Z,10.7
2024-05-09T04:32:00.293Z,10.7
2024-05-09T04:33:08.827Z,10.7
2024-05-09T04:34:14.631Z,10.7
2024-05-09T04:35:21.487Z,10.7
2024-05-09T04:36:28.522Z,10.7
2024-05-09T04:37:35.062Z,10.7
2024-05-09T04:38:42.243Z,10.7
2024-05-09T04:39:49.304Z,10.7
2024-05-09T04:40:56.485Z,10.7
2024-05-09T04:42:03.038Z,10.7
2024-05-09T04:43:10.149Z,10.7
2024-05-09T04:44:17.244Z,10.7
2024-05-09T04:45:24.302Z,10.7
2024-05-09T04:46:31.459Z,10.7
2024-05-09T04:47:38.177Z,10.7
2024-05-09T04:48:45.210Z,10.7
2024-05-09T04:49:52.312Z,10.7
2024-05-09T04:50:59.361Z,10.7
2024-05-09T04:52:06.449Z,10.7
2024-05-09T04:53:13.077Z,10.7
2024-05-09T04:55:27.264Z,10.7
2024-05-09T04:56:34.479Z,10.7
2024-05-09T04:57:41.457Z,10.7
2024-05-09T04:58:48.070Z,10.7
2024-05-09T04:59:55.149Z,10.7
2024-05-09T05:02:09.424Z,10.7
2024-05-09T05:03:16.979Z,10.7
2024-05-09T05:04:23.052Z,10.7
2024-05-09T05:05:30.225Z,10.7
2024-05-09T05:06:37.221Z,10.7
2024-05-09T05:07:44.511Z,10.7
2024-05-09T05:08:51.493Z,10.7
2024-05-09T05:09:58.019Z,10.7
2024-05-09T05:11:05.229Z,10.7
2024-05-09T05:12:12.476Z,10.7
2024-05-09T05:13:20.751Z,10.7
2024-05-09T05:14:26.570Z,10.7
2024-05-09T05:15:33.037Z,10.7
2024-05-09T05:16:40.309Z,10.7
2024-05-09T05:17:47.466Z,10.7
2024-05-09T05:18:54.494Z,10.7
2024-05-09T05:20:01.654Z,10.7
2024-05-09T05:21:08.091Z,10.7
2024-05-09T05:22:15.125Z,10.7
2024-05-09T05:23:22.443Z,10.7
2024-05-09T05:24:29.359Z,10.7
2024-05-09T05:25:36.439Z,10.7
2024-05-09T05:26:43.093Z,10.7
2024-05-09T05:28:57.308Z,10.8
2024-05-09T05:30:07.361Z,10.8
2024-05-09T05:31:11.536Z,10.8
2024-05-09T05:32:18.287Z,10.8
2024-05-09T05:33:25.236Z,10.8
2024-05-09T05:34:32.315Z,10.8
2024-05-09T05:35:39.392Z,10.8
2024-05-09T05:36:46.481Z,10.8
2024-05-09T05:37:53.143Z,10.8
2024-05-09T05:39:00.172Z,10.8
2024-05-09T05:40:09.394Z,10.8
2024-05-09T05:41:14.407Z,10.8
2024-05-09T05:42:21.457Z,10.8
2024-05-09T05:43:28.111Z,10.8
2024-05-09T05:44:35.178Z,10.8
2024-05-09T05:45:42.292Z,10.8
2024-05-09T05:46:49.531Z,10.8
2024-05-09T05:47:56.747Z,10.8
2024-05-09T05:49:03.232Z,10.8
2024-05-09T05:50:20.416Z,10.8
2024-05-09T05:51:17.545Z,10.8
2024-05-09T05:52:24.400Z,10.8
2024-05-09T05:53:31.336Z,10.8
2024-05-09T05:54:38.123Z,10.8
2024-05-09T05:55:45.269Z,10.8
2024-05-09T05:56:54.296Z,10.9
2024-05-09T05:57:59.383Z,10.9
2024-05-09T05:59:06.059Z,10.9
2024-05-09T06:01:20.349Z,10.9
2024-05-09T06:02:27.376Z,10.8
2024-05-09T06:03:34.521Z,10.9
2024-05-09T06:05:48.133Z,10.8
2024-05-09T06:06:55.191Z,10.8
2024-05-09T06:08:02.364Z,10.9
2024-05-09T06:09:09.428Z,10.8
2024-05-09T06:10:21.472Z,10.8
2024-05-09T06:11:23.303Z,10.8
2024-05-09T06:12:30.317Z,10.9
2024-05-09T06:13:37.348Z,10.9
2024-05-09T06:14:44.497Z,10.9
2024-05-09T06:15:51.032Z,10.9
2024-05-09T06:16:58.478Z,10.9
2024-05-09T06:18:05.662Z,10.9
2024-05-09T06:19:12.455Z,10.9
2024-05-09T06:20:24.067Z,10.9
2024-05-09T06:21:26.085Z,10.9
2024-05-09T06:22:33.150Z,10.8
2024-05-09T06:23:40.907Z,10.9
2024-05-09T06:24:47.333Z,10.9
2024-05-09T06:25:54.538Z,10.9
2024-05-09T06:27:01.027Z,10.9
2024-05-09T06:28:08.117Z,10.9
2024-05-09T06:29:15.344Z,10.9
2024-05-09T06:30:30.023Z,10.8
2024-05-09T06:31:29.487Z,10.9
2024-05-09T06:32:36.179Z,10.9
2024-05-09T06:33:43.387Z,10.9
2024-05-09T06:34:50.355Z,10.9
2024-05-09T06:35:57.358Z,10.9
2024-05-09T06:37:04.457Z,10.9
2024-05-09T06:38:11.617Z,10.9
2024-05-09T06:39:18.186Z,10.9
2024-05-09T06:40:29.883Z,10.9
2024-05-09T06:41:32.532Z,10.9
2024-05-09T06:42:39.486Z,10.9
2024-05-09T06:43:46.101Z,10.9
2024-05-09T06:44:53.153Z,10.9
2024-05-09T06:46:00.337Z,10.9
2024-05-09T06:47:07.621Z,10.9
2024-05-09T06:48:14.842Z,10.9
2024-05-09T06:49:21.238Z,10.9
2024-05-09T06:50:35.242Z,10.9
2024-05-09T06:51:35.284Z,10.9
2024-05-09T06:52:42.410Z,10.9
2024-05-09T06:53:49.540Z,10.9
2024-05-09T06:54:56.086Z,10.9
2024-05-09T06:57:10.328Z,10.9
2024-05-09T06:58:17.364Z,10.9
2024-05-09T06:59:24.569Z,10.9
2024-05-09T07:00:38.518Z,10.9
2024-05-09T07:01:38.335Z,10.9
2024-05-09T07:02:45.523Z,10.9
2024-05-09T07:03:52.608Z,10.9
2024-05-09T07:04:59.592Z,10.9
2024-05-09T07:06:08.027Z,10.9
2024-05-09T07:07:13.236Z,10.9
2024-05-09T07:09:27.463Z,10.9
2024-05-09T07:10:35.929Z,10.9
2024-05-09T07:11:41.295Z,10.9
2024-05-09T07:12:48.206Z,10.9
2024-05-09T07:13:55.563Z,10.9
2024-05-09T07:15:02.438Z,10.9
2024-05-09T07:16:09.646Z,10.9
2024-05-09T07:17:16.180Z,10.9
2024-05-09T07:18:23.492Z,10.9
2024-05-09T07:19:30.448Z,10.9
2024-05-09T07:20:37.670Z,10.9
2024-05-09T07:21:44.552Z,10.9
2024-05-09T07:22:51.155Z,10.9
2024-05-09T07:23:58.262Z,10.9
2024-05-09T07:25:05.313Z,10.9
2024-05-09T07:26:12.607Z,10.9
2024-05-09T07:27:19.557Z,10.9
2024-05-09T07:28:26.100Z,10.9
2024-05-09T07:29:36.284Z,10.9
2024-05-09T07:30:40.346Z,10.9
2024-05-09T07:31:47.479Z,10.9
2024-05-09T07:32:54.280Z,10.9
2024-05-09T07:34:01.202Z,10.9
2024-05-09T07:35:08.217Z,10.9
2024-05-09T07:36:15.412Z,10.9
2024-05-09T07:37:22.503Z,10.9
2024-05-09T07:38:29.123Z,10.9
2024-05-09T07:39:36.196Z,10.9
2024-05-09T07:40:43.414Z,10.9
2024-05-09T07:41:50.362Z,10.9
2024-05-09T07:42:57.458Z,10.9
2024-05-09T07:44:04.231Z,10.9
2024-05-09T07:45:29.696Z,10.9
2024-05-09T07:47:14.400Z,10.9
2024-05-09T07:48:56.896Z,10.9
2024-05-09T07:53:21.172Z,10.9
2024-05-09T07:53:36.022Z,10.9
2024-05-09T07:54:08.074Z,10.9
2024-05-09T07:55:14.237Z,10.9
2024-05-09T07:56:23.048Z,10.9
2024-05-09T07:57:28.334Z,10.9
2024-05-09T07:58:35.392Z,10.9
2024-05-09T07:59:42.451Z,10.9
2024-05-09T08:00:49.203Z,10.9
2024-05-09T08:01:56.302Z,10.9
2024-05-09T08:03:03.360Z,10.9
2024-05-09T08:04:10.438Z,10.9
2024-05-09T08:05:17.706Z,10.9
2024-05-09T08:06:24.119Z,10.9
2024-05-09T08:07:31.212Z,10.9
2024-05-09T08:08:38.282Z,10.9
2024-05-09T08:09:45.542Z,10.9
2024-05-09T08:10:52.715Z,10.9
2024-05-09T08:11:59.167Z,11
2024-05-09T08:13:06.331Z,11
2024-05-09T08:14:13.324Z,11
2024-05-09T08:15:20.416Z,11
2024-05-09T08:16:27.664Z,11
2024-05-09T08:17:34.231Z,11
2024-05-09T08:18:41.345Z,11
2024-05-09T08:19:48.355Z,11
2024-05-09T08:20:55.411Z,10.9
2024-05-09T08:22:02.595Z,11
2024-05-09T08:23:09.177Z,11
2024-05-09T08:25:23.428Z,11
2024-05-09T08:26:30.448Z,11
2024-05-09T08:27:37.551Z,11
2024-05-09T08:28:44.133Z,11
2024-05-09T08:29:51.267Z,11
2024-05-09T08:32:05.531Z,11
2024-05-09T08:33:12.634Z,11
2024-05-09T08:34:19.268Z,11
2024-05-09T08:35:26.318Z,11
2024-05-09T08:36:33.408Z,11
2024-05-09T08:37:40.875Z,11
2024-05-09T08:38:47.512Z,11
2024-05-09T08:39:54.208Z,11
2024-05-09T08:41:01.219Z,11
2024-05-09T08:42:08.297Z,11
2024-05-09T08:43:15.588Z,11
2024-05-09T08:44:22.077Z,11
2024-05-09T08:45:29.158Z,11
2024-05-09T08:46:36.280Z,11
2024-05-09T08:47:43.447Z,11
2024-05-09T08:48:50.684Z,11
2024-05-09T08:49:57.064Z,11
2024-05-09T08:51:04.189Z,11.1
2024-05-09T08:52:11.424Z,11.1
2024-05-09T08:53:18.351Z,11.1
2024-05-09T08:54:25.450Z,11.1
2024-05-09T08:55:32.042Z,11.1
2024-05-09T08:56:39.099Z,11.1
2024-05-09T08:57:46.293Z,11.1
2024-05-09T08:58:53.367Z,11.1
2024-05-09T09:00:00.646Z,11.1
2024-05-09T09:01:07.122Z,11.1
2024-05-09T09:02:14.429Z,11.1
2024-05-09T09:03:21.252Z,11.1
2024-05-09T09:04:28.489Z,11.1
2024-05-09T09:05:35.741Z,11.2
2024-05-09T09:06:42.119Z,11.2
2024-05-09T09:07:49.146Z,11.2
2024-05-09T09:08:56.225Z,11.2
2024-05-09T09:10:05.511Z,11.3
2024-05-09T09:11:10.560Z,11.3
2024-05-09T09:12:17.159Z,11.3
2024-05-09T09:13:24.203Z,11.3
2024-05-09T09:14:31.328Z,11.3
2024-05-09T09:15:38.384Z,11.3
2024-05-09T09:16:45.521Z,11.3
2024-05-09T09:17:52.200Z,11.3
2024-05-09T09:18:59.267Z,11.3
2024-05-09T09:20:11.283Z,11.3
2024-05-09T09:21:13.407Z,11.3
2024-05-09T09:22:20.531Z,11.4
2024-05-09T09:23:27.053Z,11.4
2024-05-09T09:24:34.236Z,11.4
2024-05-09T09:25:41.382Z,11.4
2024-05-09T09:26:48.422Z,11.4
2024-05-09T09:27:55.644Z,11.4
2024-05-09T09:29:02.083Z,11.4
2024-05-09T09:30:22.847Z,11.4
2024-05-09T09:31:16.295Z,11.4
2024-05-09T09:32:23.423Z,11.4
2024-05-09T09:33:30.694Z,11.4
2024-05-09T09:35:44.482Z,11.4
2024-05-09T09:36:54.291Z,11.4
2024-05-09T09:37:58.470Z,11.4
2024-05-09T09:39:05.499Z,11.4
2024-05-09T09:40:13.196Z,11.4
2024-05-09T09:41:19.237Z,11.4
2024-05-09T09:42:26.286Z,11.4
2024-05-09T09:43:33.436Z,11.4
2024-05-09T09:44:42.283Z,11.4
2024-05-09T09:45:47.134Z,11.5
2024-05-09T09:46:54.325Z,11.5
2024-05-09T09:48:01.418Z,11.5
2024-05-09T09:49:08.518Z,11.5
2024-05-09T09:50:20.378Z,11.5
2024-05-09T09:51:22.149Z,11.5
2024-05-09T09:53:36.351Z,11.5
2024-05-09T09:54:43.514Z,11.5
2024-05-09T09:55:50.587Z,11.5
2024-05-09T09:56:57.114Z,11.6
2024-05-09T09:58:04.397Z,11.6
2024-05-09T09:59:11.359Z,11.6
2024-05-09T10:00:24.485Z,11.6
2024-05-09T10:01:25.617Z,11.5
2024-05-09T10:02:32.411Z,11.6
2024-05-09T10:03:39.414Z,11.6
2024-05-09T10:04:46.588Z,11.6
2024-05-09T10:05:53.500Z,11.6
2024-05-09T10:07:00.139Z,11.6
2024-05-09T10:08:07.121Z,11.6
2024-05-09T10:09:14.275Z,11.6
2024-05-09T10:10:27.408Z,11.6
2024-05-09T10:11:28.507Z,11.6
2024-05-09T10:12:35.098Z,11.6
2024-05-09T10:13:42.289Z,11.6
2024-05-09T10:14:49.282Z,11.6
2024-05-09T10:15:56.352Z,11.6
2024-05-09T10:17:03.514Z,11.6
2024-05-09T10:18:10.327Z,11.6
2024-05-09T10:19:17.202Z,11.6
2024-05-09T10:20:28.091Z,11.6
2024-05-09T10:21:31.414Z,11.6
2024-05-09T10:22:38.431Z,11.6
2024-05-09T10:23:45.055Z,11.6
2024-05-09T10:24:52.245Z,11.6
2024-05-09T10:25:59.559Z,11.6
2024-05-09T10:27:06.335Z,11.6
2024-05-09T10:28:13.575Z,11.6
2024-05-09T10:29:21.151Z,11.6
2024-05-09T10:30:34.009Z,11.6
2024-05-09T10:31:34.325Z,11.6
2024-05-09T10:32:41.637Z,11.6
2024-05-09T10:33:49.539Z,11.6
2024-05-09T10:34:55.190Z,11.6
2024-05-09T10:36:02.216Z,11.6
2024-05-09T10:37:09.270Z,11.6
2024-05-09T10:39:23.556Z,11.6
2024-05-09T10:40:31.927Z,11.6
2024-05-09T10:41:37.179Z,11.6
2024-05-09T10:42:44.335Z,11.6
2024-05-09T10:43:51.561Z,11.7
2024-05-09T10:44:58.499Z,11.7
2024-05-09T10:46:05.315Z,11.7
2024-05-09T10:47:12.287Z,11.7
2024-05-09T10:48:19.363Z,11.7
2024-05-09T10:49:26.572Z,11.7
2024-05-09T10:50:34.640Z,11.7
2024-05-09T10:51:40.173Z,11.7
2024-05-09T10:52:47.211Z,11.7
2024-05-09T10:53:54.332Z,11.7
2024-05-09T10:55:03.824Z,11.7
2024-05-09T10:56:08.524Z,11.7
2024-05-09T10:57:15.059Z,11.7
2024-05-09T10:58:22.259Z,11.8
2024-05-09T10:59:29.288Z,11.8
2024-05-09T11:00:36.879Z,11.8
2024-05-09T11:01:43.748Z,11.8
2024-05-09T11:02:50.303Z,11.8
2024-05-09T11:03:57.340Z,11.8
2024-05-09T11:05:04.424Z,11.8
2024-05-09T11:06:11.581Z,11.8
2024-05-09T11:07:18.639Z,11.9
2024-05-09T11:08:25.109Z,11.9
2024-05-09T11:09:32.332Z,11.9
2024-05-09T11:10:39.377Z,11.9
2024-05-09T11:11:46.495Z,11.9
2024-05-09T11:12:53.152Z,12
2024-05-09T11:14:00.124Z,12
2024-05-09T11:15:07.211Z,12
2024-05-09T11:16:14.488Z,12
2024-05-09T11:17:21.544Z,12
2024-05-09T11:18:30.666Z,12
2024-05-09T11:19:35.139Z,12
2024-05-09T11:20:42.412Z,12
2024-05-09T11:21:49.384Z,12
2024-05-09T11:22:56.415Z,12
2024-05-09T11:24:03.016Z,12
2024-05-09T11:25:10.223Z,12
2024-05-09T11:26:17.232Z,12
2024-05-09T11:27:24.356Z,12
2024-05-09T11:28:31.452Z,12
2024-05-09T11:29:38.042Z,12
2024-05-09T11:30:45.153Z,12
2024-05-09T11:31:52.407Z,12
2024-05-09T11:32:59.748Z,12
2024-05-09T11:34:06.458Z,12
2024-05-09T11:35:13.065Z,12
2024-05-09T11:36:20.180Z,12
2024-05-09T11:37:27.313Z,12
2024-05-09T11:38:34.461Z,12
2024-05-09T11:39:41.512Z,12
2024-05-09T11:40:48.058Z,12
2024-05-09T11:43:02.320Z,12
2024-05-09T11:44:09.388Z,12
2024-05-09T11:45:16.543Z,12
2024-05-09T11:46:23.310Z,12
2024-05-09T11:47:30.278Z,12
2024-05-09T11:48:37.450Z,12
2024-05-09T11:49:44.517Z,12
2024-05-09T11:50:51.502Z,12
2024-05-09T11:51:58.101Z,12
2024-05-09T11:53:05.174Z,12
2024-05-09T11:54:12.265Z,12
2024-05-09T11:55:19.492Z,12
2024-05-09T11:56:26.493Z,12
2024-05-09T11:57:34.231Z,12
2024-05-09T11:58:40.204Z,12
2024-05-09T11:59:47.262Z,12
2024-05-09T12:00:54.590Z,12
2024-05-09T12:02:01.610Z,12
2024-05-09T12:03:08.148Z,12
2024-05-09T12:04:15.435Z,12
2024-05-09T12:05:22.452Z,12
2024-05-09T12:06:29.488Z,12
2024-05-09T12:07:36.475Z,12
2024-05-09T12:08:43.096Z,12
2024-05-09T12:09:50.205Z,12
2024-05-09T12:10:57.496Z,12
2024-05-09T12:12:04.431Z,12
2024-05-09T12:13:11.599Z,12
2024-05-09T12:14:18.082Z,12.1
2024-05-09T12:15:25.228Z,12.1
2024-05-09T12:16:32.575Z,12.1
2024-05-09T12:17:39.440Z,12.1
2024-05-09T12:18:46.587Z,12.1
2024-05-09T12:19:53.124Z,12.1
2024-05-09T12:21:00.294Z,12.1
2024-05-09T12:22:07.396Z,12.2
2024-05-09T12:23:14.412Z,12.2
2024-05-09T12:24:21.493Z,12.2
2024-05-09T12:25:28.109Z,12.2
2024-05-09T12:26:35.253Z,12.2
2024-05-09T12:27:42.355Z,12.2
2024-05-09T12:28:49.438Z,12.3
2024-05-09T12:29:56.500Z,12.3
2024-05-09T12:31:03.172Z,12.2
2024-05-09T12:32:10.295Z,12.3
2024-05-09T12:33:17.462Z,12.3
2024-05-09T12:34:24.508Z,12.3
2024-05-09T12:35:31.090Z,12.3
2024-05-09T12:36:38.147Z,12.2
2024-05-09T12:37:45.275Z,12.2
2024-05-09T12:38:52.373Z,12.2
2024-05-09T12:39:59.503Z,12.2
2024-05-09T12:41:06.075Z,12.2
2024-05-09T12:42:25.872Z,12.2
2024-05-09T12:43:20.398Z,12.2
2024-05-09T12:44:27.381Z,12.2
2024-05-09T12:46:41.045Z,12.2
2024-05-09T12:47:48.219Z,12.2
2024-05-09T12:50:03.796Z,12.2
2024-05-09T12:51:09.516Z,12.2
2024-05-09T12:52:16.036Z,12.2
2024-05-09T12:53:23.215Z,12.2
2024-05-09T12:54:30.327Z,12.2
2024-05-09T12:55:44.508Z,12.3
2024-05-09T12:56:44.505Z,12.2
2024-05-09T12:57:51.191Z,12.2
2024-05-09T12:58:58.183Z,12.2
2024-05-09T13:00:05.808Z,12.2
2024-05-09T13:01:12.486Z,12.2
2024-05-09T13:02:19.633Z,12.2
2024-05-09T13:03:26.145Z,12.2
2024-05-09T13:04:33.403Z,12.2
2024-05-09T13:05:40.443Z,12.2
2024-05-09T13:06:47.455Z,12.2
2024-05-09T13:07:54.498Z,12.2
2024-05-09T13:09:01.033Z,12.2
2024-05-09T13:10:13.801Z,12.2
2024-05-09T13:11:15.295Z,12.2
2024-05-09T13:12:24.298Z,12.3
2024-05-09T13:13:29.514Z,12.2
2024-05-09T13:14:36.078Z,12.2
2024-05-09T13:15:43.290Z,12.2
2024-05-09T13:16:50.388Z,12.3
2024-05-09T13:18:00.503Z,12.3
2024-05-09T13:19:04.524Z,12.3
2024-05-09T13:20:18.910Z,12.3
2024-05-09T13:21:18.221Z,12.3
2024-05-09T13:22:25.345Z,12.3
2024-05-09T13:23:32.429Z,12.4
2024-05-09T13:24:39.608Z,12.4
2024-05-09T13:25:46.612Z,12.4
2024-05-09T13:26:54.320Z,12.4
2024-05-09T13:28:00.423Z,12.4
2024-05-09T13:29:07.376Z,12.4
2024-05-09T13:30:21.817Z,12.4
2024-05-09T13:31:21.187Z,12.4
2024-05-09T13:32:28.298Z,12.4
2024-05-09T13:33:35.391Z,12.4
2024-05-09T13:34:42.573Z,12.4
2024-05-09T13:35:51.013Z,12.4
2024-05-09T13:36:56.201Z,12.4
2024-05-09T13:38:04.010Z,12.5
2024-05-09T13:39:10.315Z,12.4
2024-05-09T13:40:26.667Z,12.4
2024-05-09T13:41:24.493Z,12.4
2024-05-09T13:42:31.251Z,12.4
2024-05-09T13:43:38.255Z,12.4
2024-05-09T13:44:45.354Z,12.4
2024-05-09T13:45:52.552Z,12.4
2024-05-09T13:46:59.041Z,12.4
2024-05-09T13:48:06.193Z,12.4
2024-05-09T13:50:28.237Z,12.4
2024-05-09T13:51:27.463Z,12.5
2024-05-09T13:52:34.124Z,12.5
2024-05-09T13:53:41.152Z,12.5
2024-05-09T13:54:48.270Z,12.5
2024-05-09T13:55:55.452Z,12.5
2024-05-09T13:57:02.464Z,12.5
2024-05-09T13:58:09.674Z,12.5
2024-05-09T13:59:16.165Z,12.5
2024-05-09T14:00:37.659Z,12.5
2024-05-09T14:01:30.480Z,12.5
2024-05-09T14:02:37.540Z,12.5
2024-05-09T14:03:44.256Z,12.5
2024-05-09T14:04:51.275Z,12.5
2024-05-09T14:05:58.450Z,12.5
2024-05-09T14:07:05.370Z,12.6
2024-05-09T14:08:12.510Z,12.5
2024-05-09T14:09:19.093Z,12.6
2024-05-09T14:10:30.943Z,12.6
2024-05-09T14:11:33.402Z,12.6
2024-05-09T14:12:40.439Z,12.6
2024-05-09T14:13:47.502Z,12.6
2024-05-09T14:14:54.102Z,12.6
2024-05-09T14:16:01.305Z,12.6
2024-05-09T14:18:15.461Z,12.6
2024-05-09T14:19:22.535Z,12.6
2024-05-09T14:20:31.716Z,12.6
2024-05-09T14:21:36.262Z,12.6
2024-05-09T14:22:43.306Z,12.6
2024-05-09T14:23:50.408Z,12.7
2024-05-09T14:24:57.602Z,12.6
2024-05-09T14:26:04.136Z,12.6
2024-05-09T14:27:11.189Z,12.6
2024-05-09T14:28:18.407Z,12.6
2024-05-09T14:29:25.396Z,12.6
2024-05-09T14:30:37.212Z,12.6
2024-05-09T14:31:39.852Z,12.7
2024-05-09T14:32:46.228Z,12.6
2024-05-09T14:33:53.625Z,12.6
2024-05-09T14:35:00.600Z,12.6
2024-05-09T14:36:07.509Z,12.6
2024-05-09T14:37:14.299Z,12.7
2024-05-09T14:38:21.219Z,12.7
2024-05-09T14:39:28.334Z,12.7
2024-05-09T14:40:41.122Z,12.7
2024-05-09T14:41:42.005Z,12.7
2024-05-09T14:42:49.174Z,12.7
2024-05-09T14:43:56.180Z,12.7
2024-05-09T14:45:03.354Z,12.7
2024-05-09T14:46:10.539Z,12.7
2024-05-09T14:47:17.028Z,12.8
2024-05-09T14:48:24.343Z,12.8
2024-05-09T14:49:31.318Z,12.7
2024-05-09T14:50:40.196Z,12.8
2024-05-09T14:51:45.482Z,12.8
2024-05-09T14:53:59.690Z,12.8
2024-05-09T14:55:07.547Z,12.8
2024-05-09T14:56:13.361Z,12.8
2024-05-09T14:57:20.512Z,12.8
2024-05-09T14:58:27.121Z,12.8
2024-05-09T14:59:34.107Z,12.8
2024-05-09T15:00:44.832Z,12.8
2024-05-09T15:01:48.596Z,12.8
2024-05-09T15:02:55.494Z,12.8
2024-05-09T15:04:02.492Z,12.7
2024-05-09T15:05:09.246Z,12.7
2024-05-09T15:06:16.234Z,12.7
2024-05-09T15:07:23.474Z,12.7
2024-05-09T15:08:30.495Z,12.6
2024-05-09T15:09:37.594Z,12.6
2024-05-09T15:10:44.442Z,12.6
2024-05-09T15:11:51.346Z,12.6
2024-05-09T15:12:58.534Z,12.6
2024-05-09T15:14:05.437Z,12.6
2024-05-09T15:15:12.071Z,12.6
2024-05-09T15:16:19.214Z,12.6
2024-05-09T15:17:26.277Z,12.6
2024-05-09T15:18:33.715Z,12.6
2024-05-09T15:19:40.620Z,12.6
2024-05-09T15:20:47.623Z,12.6
2024-05-09T15:21:54.247Z,12.5
2024-05-09T15:23:01.301Z,12.5
2024-05-09T15:24:08.332Z,12.5
2024-05-09T15:25:15.683Z,12.5
2024-05-09T15:26:22.100Z,12.5
2024-05-09T15:27:29.208Z,12.5
2024-05-09T15:28:36.251Z,12.5
2024-05-09T15:29:43.400Z,12.6